sensor_id;sensor_type;location;lat;lon;timestamp;temperature;humidity
19110;DHT22;9687;50.836;12.060;2023-06-01T00:00:03;19.10;60.60
19110;DHT22;9687;50.836;12.060;2023-06-01T00:02:36;19.10;60.70
19110;DHT22;9687;50.836;12.060;2023-06-01T00:05:07;19.00;60.80
19110;DHT22;9687;50.836;12.060;2023-06-01T00:07:43;19.00;60.90
19110;DHT22;9687;50.836;12.060;2023-06-01T00:10:11;18.90;60.90
19110;DHT22;9687;50.836;12.060;2023-06-01T00:12:43;18.90;61.80
19110;DHT22;9687;50.836;12.060;2023-06-01T00:15:12;18.90;61.00
19110;DHT22;9687;50.836;12.060;2023-06-01T00:17:46;18.90;61.00
19110;DHT22;9687;50.836;12.060;2023-06-01T00:20:19;18.90;60.80
19110;DHT22;9687;50.836;12.060;2023-06-01T00:22:52;18.90;60.70
19110;DHT22;9687;50.836;12.060;2023-06-01T00:25:21;19.00;60.80
19110;DHT22;9687;50.836;12.060;2023-06-01T00:27:48;18.90;60.70
19110;DHT22;9687;50.836;12.060;2023-06-01T00:30:22;18.90;61.00
19110;DHT22;9687;50.836;12.060;2023-06-01T00:32:54;18.80;61.10
19110;DHT22;9687;50.836;12.060;2023-06-01T00:35:22;18.60;61.60
19110;DHT22;9687;50.836;12.060;2023-06-01T00:37:53;18.50;61.90
19110;DHT22;9687;50.836;12.060;2023-06-01T00:40:25;18.30;62.50
19110;DHT22;9687;50.836;12.060;2023-06-01T00:42:57;18.10;62.90
19110;DHT22;9687;50.836;12.060;2023-06-01T00:45:26;17.90;62.30
19110;DHT22;9687;50.836;12.060;2023-06-01T00:47:54;17.90;63.20
19110;DHT22;9687;50.836;12.060;2023-06-01T00:50:23;17.90;63.40
19110;DHT22;9687;50.836;12.060;2023-06-01T00:52:53;17.80;63.50
19110;DHT22;9687;50.836;12.060;2023-06-01T00:55:22;17.80;63.60
19110;DHT22;9687;50.836;12.060;2023-06-01T00:57:50;17.80;63.70
19110;DHT22;9687;50.836;12.060;2023-06-01T01:00:18;17.80;63.60
19110;DHT22;9687;50.836;12.060;2023-06-01T01:02:48;17.80;63.40
19110;DHT22;9687;50.836;12.060;2023-06-01T01:05:17;17.90;63.30
19110;DHT22;9687;50.836;12.060;2023-06-01T01:07:51;18.00;63.20
19110;DHT22;9687;50.836;12.060;2023-06-01T01:10:24;18.00;63.30
19110;DHT22;9687;50.836;12.060;2023-06-01T01:13:04;18.00;62.90
19110;DHT22;9687;50.836;12.060;2023-06-01T01:15:37;18.10;62.80
19110;DHT22;9687;50.836;12.060;2023-06-01T01:18:11;18.10;62.80
19110;DHT22;9687;50.836;12.060;2023-06-01T01:20:41;18.10;62.80
19110;DHT22;9687;50.836;12.060;2023-06-01T01:23:20;18.00;62.80
19110;DHT22;9687;50.836;12.060;2023-06-01T01:26:08;18.00;63.00
19110;DHT22;9687;50.836;12.060;2023-06-01T01:28:42;17.90;63.10
19110;DHT22;9687;50.836;12.060;2023-06-01T01:31:13;17.90;63.20
19110;DHT22;9687;50.836;12.060;2023-06-01T01:33:42;17.80;63.20
19110;DHT22;9687;50.836;12.060;2023-06-01T01:36:11;17.80;63.20
19110;DHT22;9687;50.836;12.060;2023-06-01T01:38:42;17.80;63.10
19110;DHT22;9687;50.836;12.060;2023-06-01T01:41:11;17.80;63.10
19110;DHT22;9687;50.836;12.060;2023-06-01T01:43:45;17.80;63.00
19110;DHT22;9687;50.836;12.060;2023-06-01T01:46:23;17.80;62.80
19110;DHT22;9687;50.836;12.060;2023-06-01T01:49:12;17.90;62.90
19110;DHT22;9687;50.836;12.060;2023-06-01T01:52:06;17.90;62.80
19110;DHT22;9687;50.836;12.060;2023-06-01T01:54:37;17.80;62.70
19110;DHT22;9687;50.836;12.060;2023-06-01T01:57:07;17.80;62.70
19110;DHT22;9687;50.836;12.060;2023-06-01T01:59:38;17.80;62.90
19110;DHT22;9687;50.836;12.060;2023-06-01T02:02:06;17.80;63.00
19110;DHT22;9687;50.836;12.060;2023-06-01T02:04:37;17.80;63.10
19110;DHT22;9687;50.836;12.060;2023-06-01T02:07:09;17.70;63.10
19110;DHT22;9687;50.836;12.060;2023-06-01T02:09:45;17.70;63.20
19110;DHT22;9687;50.836;12.060;2023-06-01T02:12:12;17.70;63.20
19110;DHT22;9687;50.836;12.060;2023-06-01T02:14:41;17.70;63.20
19110;DHT22;9687;50.836;12.060;2023-06-01T02:17:08;17.70;63.20
19110;DHT22;9687;50.836;12.060;2023-06-01T02:19:36;17.60;63.10
19110;DHT22;9687;50.836;12.060;2023-06-01T02:22:03;17.60;63.00
19110;DHT22;9687;50.836;12.060;2023-06-01T02:24:31;17.60;63.10
19110;DHT22;9687;50.836;12.060;2023-06-01T02:26:58;17.60;63.20
19110;DHT22;9687;50.836;12.060;2023-06-01T02:29:25;17.50;63.20
19110;DHT22;9687;50.836;12.060;2023-06-01T02:31:54;17.50;63.30
19110;DHT22;9687;50.836;12.060;2023-06-01T02:34:21;17.50;63.30
19110;DHT22;9687;50.836;12.060;2023-06-01T02:36:49;17.50;63.40
19110;DHT22;9687;50.836;12.060;2023-06-01T02:39:17;17.50;64.30
19110;DHT22;9687;50.836;12.060;2023-06-01T02:41:44;17.50;63.50
19110;DHT22;9687;50.836;12.060;2023-06-01T02:44:12;17.50;63.60
19110;DHT22;9687;50.836;12.060;2023-06-01T02:46:39;17.40;63.50
19110;DHT22;9687;50.836;12.060;2023-06-01T02:49:10;17.40;63.60
19110;DHT22;9687;50.836;12.060;2023-06-01T02:51:38;17.40;63.50
19110;DHT22;9687;50.836;12.060;2023-06-01T02:54:06;17.40;63.60
19110;DHT22;9687;50.836;12.060;2023-06-01T02:56:33;17.40;63.70
19110;DHT22;9687;50.836;12.060;2023-06-01T02:59:00;17.40;63.60
19110;DHT22;9687;50.836;12.060;2023-06-01T03:01:29;17.30;63.60
19110;DHT22;9687;50.836;12.060;2023-06-01T03:04:01;17.30;63.70
19110;DHT22;9687;50.836;12.060;2023-06-01T03:06:34;17.30;63.70
19110;DHT22;9687;50.836;12.060;2023-06-01T03:09:03;17.30;63.70
19110;DHT22;9687;50.836;12.060;2023-06-01T03:11:31;17.30;63.70
19110;DHT22;9687;50.836;12.060;2023-06-01T03:13:59;17.20;63.50
19110;DHT22;9687;50.836;12.060;2023-06-01T03:16:26;17.20;63.60
19110;DHT22;9687;50.836;12.060;2023-06-01T03:18:53;17.20;63.60
19110;DHT22;9687;50.836;12.060;2023-06-01T03:21:20;17.20;63.60
19110;DHT22;9687;50.836;12.060;2023-06-01T03:23:49;17.20;63.60
19110;DHT22;9687;50.836;12.060;2023-06-01T03:26:18;17.10;63.70
19110;DHT22;9687;50.836;12.060;2023-06-01T03:28:47;17.00;63.80
19110;DHT22;9687;50.836;12.060;2023-06-01T03:31:14;17.00;63.90
19110;DHT22;9687;50.836;12.060;2023-06-01T03:33:42;17.00;64.00
19110;DHT22;9687;50.836;12.060;2023-06-01T03:36:09;16.90;63.80
19110;DHT22;9687;50.836;12.060;2023-06-01T03:38:37;17.00;64.10
19110;DHT22;9687;50.836;12.060;2023-06-01T03:41:05;16.90;63.90
19110;DHT22;9687;50.836;12.060;2023-06-01T03:43:33;16.90;63.90
19110;DHT22;9687;50.836;12.060;2023-06-01T03:46:00;16.90;64.00
19110;DHT22;9687;50.836;12.060;2023-06-01T03:48:29;16.90;64.00
19110;DHT22;9687;50.836;12.060;2023-06-01T03:50:56;16.90;64.00
19110;DHT22;9687;50.836;12.060;2023-06-01T03:53:24;16.80;63.90
19110;DHT22;9687;50.836;12.060;2023-06-01T03:55:51;16.80;63.90
19110;DHT22;9687;50.836;12.060;2023-06-01T03:58:22;16.80;64.00
19110;DHT22;9687;50.836;12.060;2023-06-01T04:00:49;16.80;64.10
19110;DHT22;9687;50.836;12.060;2023-06-01T04:03:17;16.70;64.00
19110;DHT22;9687;50.836;12.060;2023-06-01T04:05:47;16.70;64.20
19110;DHT22;9687;50.836;12.060;2023-06-01T04:08:15;16.70;64.30
19110;DHT22;9687;50.836;12.060;2023-06-01T04:10:45;16.70;64.40
19110;DHT22;9687;50.836;12.060;2023-06-01T04:13:12;16.70;64.50
19110;DHT22;9687;50.836;12.060;2023-06-01T04:15:42;16.60;64.60
19110;DHT22;9687;50.836;12.060;2023-06-01T04:18:09;16.60;64.70
19110;DHT22;9687;50.836;12.060;2023-06-01T04:20:37;16.50;64.90
19110;DHT22;9687;50.836;12.060;2023-06-01T04:23:05;16.50;65.20
19110;DHT22;9687;50.836;12.060;2023-06-01T04:25:32;16.40;65.10
19110;DHT22;9687;50.836;12.060;2023-06-01T04:28:00;16.30;65.00
19110;DHT22;9687;50.836;12.060;2023-06-01T04:30:27;16.30;65.30
19110;DHT22;9687;50.836;12.060;2023-06-01T04:32:56;16.30;64.80
19110;DHT22;9687;50.836;12.060;2023-06-01T04:35:26;16.20;65.50
19110;DHT22;9687;50.836;12.060;2023-06-01T04:37:54;16.20;65.50
19110;DHT22;9687;50.836;12.060;2023-06-01T04:40:22;16.20;65.70
19110;DHT22;9687;50.836;12.060;2023-06-01T04:42:51;16.20;65.90
19110;DHT22;9687;50.836;12.060;2023-06-01T04:45:22;16.20;66.10
19110;DHT22;9687;50.836;12.060;2023-06-01T04:47:51;16.10;66.20
19110;DHT22;9687;50.836;12.060;2023-06-01T04:50:20;16.10;66.50
19110;DHT22;9687;50.836;12.060;2023-06-01T04:52:48;16.10;66.70
19110;DHT22;9687;50.836;12.060;2023-06-01T04:55:16;16.00;67.00
19110;DHT22;9687;50.836;12.060;2023-06-01T04:57:43;16.00;67.10
19110;DHT22;9687;50.836;12.060;2023-06-01T05:00:11;16.00;67.20
19110;DHT22;9687;50.836;12.060;2023-06-01T05:02:40;16.10;67.50
19110;DHT22;9687;50.836;12.060;2023-06-01T05:05:08;16.10;67.60
19110;DHT22;9687;50.836;12.060;2023-06-01T05:07:38;16.10;67.50
19110;DHT22;9687;50.836;12.060;2023-06-01T05:10:06;16.10;67.60
19110;DHT22;9687;50.836;12.060;2023-06-01T05:12:34;16.10;67.80
19110;DHT22;9687;50.836;12.060;2023-06-01T05:15:02;16.10;68.40
19110;DHT22;9687;50.836;12.060;2023-06-01T05:17:30;16.10;69.80
19110;DHT22;9687;50.836;12.060;2023-06-01T05:19:57;16.00;68.60
19110;DHT22;9687;50.836;12.060;2023-06-01T05:22:26;16.00;69.50
19110;DHT22;9687;50.836;12.060;2023-06-01T05:24:56;16.00;69.90
19110;DHT22;9687;50.836;12.060;2023-06-01T05:27:23;16.10;70.30
19110;DHT22;9687;50.836;12.060;2023-06-01T05:29:51;16.10;70.40
19110;DHT22;9687;50.836;12.060;2023-06-01T05:32:18;16.10;70.60
19110;DHT22;9687;50.836;12.060;2023-06-01T05:34:50;16.10;71.10
19110;DHT22;9687;50.836;12.060;2023-06-01T05:37:18;16.10;71.50
19110;DHT22;9687;50.836;12.060;2023-06-01T05:39:47;16.10;71.50
19110;DHT22;9687;50.836;12.060;2023-06-01T05:42:16;16.10;71.70
19110;DHT22;9687;50.836;12.060;2023-06-01T05:44:45;16.20;72.00
19110;DHT22;9687;50.836;12.060;2023-06-01T05:47:13;16.20;72.20
19110;DHT22;9687;50.836;12.060;2023-06-01T05:49:40;16.30;72.30
19110;DHT22;9687;50.836;12.060;2023-06-01T05:52:08;16.40;72.30
19110;DHT22;9687;50.836;12.060;2023-06-01T05:54:36;16.40;72.50
19110;DHT22;9687;50.836;12.060;2023-06-01T05:57:05;16.50;72.20
19110;DHT22;9687;50.836;12.060;2023-06-01T05:59:34;16.60;72.50
19110;DHT22;9687;50.836;12.060;2023-06-01T06:02:02;16.70;72.80
19110;DHT22;9687;50.836;12.060;2023-06-01T06:04:29;16.70;73.10
19110;DHT22;9687;50.836;12.060;2023-06-01T06:06:57;16.80;73.10
19110;DHT22;9687;50.836;12.060;2023-06-01T06:09:24;16.80;73.00
19110;DHT22;9687;50.836;12.060;2023-06-01T06:11:51;16.90;73.10
19110;DHT22;9687;50.836;12.060;2023-06-01T06:14:19;17.00;73.10
19110;DHT22;9687;50.836;12.060;2023-06-01T06:16:48;17.10;72.80
19110;DHT22;9687;50.836;12.060;2023-06-01T06:19:16;17.20;72.80
19110;DHT22;9687;50.836;12.060;2023-06-01T06:21:44;17.20;72.60
19110;DHT22;9687;50.836;12.060;2023-06-01T06:24:11;17.30;72.60
19110;DHT22;9687;50.836;12.060;2023-06-01T06:26:38;17.40;72.30
19110;DHT22;9687;50.836;12.060;2023-06-01T06:29:06;17.50;72.10
19110;DHT22;9687;50.836;12.060;2023-06-01T06:31:33;17.60;72.30
19110;DHT22;9687;50.836;12.060;2023-06-01T06:34:02;17.60;72.00
19110;DHT22;9687;50.836;12.060;2023-06-01T06:36:30;17.70;71.60
19110;DHT22;9687;50.836;12.060;2023-06-01T06:38:57;17.70;71.30
19110;DHT22;9687;50.836;12.060;2023-06-01T06:41:25;17.80;71.20
19110;DHT22;9687;50.836;12.060;2023-06-01T06:43:53;17.90;71.30
19110;DHT22;9687;50.836;12.060;2023-06-01T06:46:20;17.90;71.10
19110;DHT22;9687;50.836;12.060;2023-06-01T06:48:48;18.00;71.10
19110;DHT22;9687;50.836;12.060;2023-06-01T06:51:17;18.00;70.80
19110;DHT22;9687;50.836;12.060;2023-06-01T06:53:45;18.00;70.70
19110;DHT22;9687;50.836;12.060;2023-06-01T06:56:14;18.00;70.70
19110;DHT22;9687;50.836;12.060;2023-06-01T06:58:44;18.10;70.80
19110;DHT22;9687;50.836;12.060;2023-06-01T07:01:11;18.10;69.90
19110;DHT22;9687;50.836;12.060;2023-06-01T07:03:39;18.20;70.50
19110;DHT22;9687;50.836;12.060;2023-06-01T07:06:07;18.20;70.40
19110;DHT22;9687;50.836;12.060;2023-06-01T07:08:36;18.30;70.70
19110;DHT22;9687;50.836;12.060;2023-06-01T07:11:04;18.30;70.70
19110;DHT22;9687;50.836;12.060;2023-06-01T07:13:32;18.40;70.50
19110;DHT22;9687;50.836;12.060;2023-06-01T07:16:00;18.40;70.40
19110;DHT22;9687;50.836;12.060;2023-06-01T07:18:29;18.50;70.30
19110;DHT22;9687;50.836;12.060;2023-06-01T07:20:57;18.60;69.20
19110;DHT22;9687;50.836;12.060;2023-06-01T07:23:25;18.70;69.70
19110;DHT22;9687;50.836;12.060;2023-06-01T07:25:54;18.80;69.60
19110;DHT22;9687;50.836;12.060;2023-06-01T07:28:21;18.90;69.70
19110;DHT22;9687;50.836;12.060;2023-06-01T07:30:51;18.90;69.30
19110;DHT22;9687;50.836;12.060;2023-06-01T07:33:19;19.00;68.90
19110;DHT22;9687;50.836;12.060;2023-06-01T07:35:47;19.10;68.50
19110;DHT22;9687;50.836;12.060;2023-06-01T07:38:19;19.20;68.10
19110;DHT22;9687;50.836;12.060;2023-06-01T07:40:49;19.20;68.20
19110;DHT22;9687;50.836;12.060;2023-06-01T07:43:19;19.30;68.20
19110;DHT22;9687;50.836;12.060;2023-06-01T07:46:01;19.30;68.20
19110;DHT22;9687;50.836;12.060;2023-06-01T07:48:28;19.40;68.40
19110;DHT22;9687;50.836;12.060;2023-06-01T07:51:01;19.50;68.40
19110;DHT22;9687;50.836;12.060;2023-06-01T07:53:29;19.50;68.40
19110;DHT22;9687;50.836;12.060;2023-06-01T07:55:58;19.60;67.90
19110;DHT22;9687;50.836;12.060;2023-06-01T07:58:29;19.60;68.00
19110;DHT22;9687;50.836;12.060;2023-06-01T08:04:35;19.80;67.70
19110;DHT22;9687;50.836;12.060;2023-06-01T08:07:04;19.90;67.20
19110;DHT22;9687;50.836;12.060;2023-06-01T08:09:33;20.00;67.00
19110;DHT22;9687;50.836;12.060;2023-06-01T08:12:03;20.10;66.70
19110;DHT22;9687;50.836;12.060;2023-06-01T08:18:04;20.20;66.80
19110;DHT22;9687;50.836;12.060;2023-06-01T08:20:44;20.30;66.40
19110;DHT22;9687;50.836;12.060;2023-06-01T08:23:33;20.40;66.50
19110;DHT22;9687;50.836;12.060;2023-06-01T08:26:01;20.40;66.30
19110;DHT22;9687;50.836;12.060;2023-06-01T08:28:30;20.50;65.80
19110;DHT22;9687;50.836;12.060;2023-06-01T08:30:59;20.60;65.70
19110;DHT22;9687;50.836;12.060;2023-06-01T08:33:27;20.60;65.40
19110;DHT22;9687;50.836;12.060;2023-06-01T08:35:55;20.70;65.30
19110;DHT22;9687;50.836;12.060;2023-06-01T08:38:22;20.80;65.30
19110;DHT22;9687;50.836;12.060;2023-06-01T08:40:51;20.80;65.00
19110;DHT22;9687;50.836;12.060;2023-06-01T08:43:18;20.90;64.70
19110;DHT22;9687;50.836;12.060;2023-06-01T08:45:46;21.00;64.30
19110;DHT22;9687;50.836;12.060;2023-06-01T08:48:15;21.10;64.60
19110;DHT22;9687;50.836;12.060;2023-06-01T08:50:47;21.10;64.40
19110;DHT22;9687;50.836;12.060;2023-06-01T08:53:15;21.20;64.00
19110;DHT22;9687;50.836;12.060;2023-06-01T08:55:50;21.20;63.70
19110;DHT22;9687;50.836;12.060;2023-06-01T08:58:18;21.30;63.80
19110;DHT22;9687;50.836;12.060;2023-06-01T09:00:47;21.40;63.80
19110;DHT22;9687;50.836;12.060;2023-06-01T09:03:16;21.50;64.00
19110;DHT22;9687;50.836;12.060;2023-06-01T09:05:47;21.60;64.50
19110;DHT22;9687;50.836;12.060;2023-06-01T09:08:15;21.70;64.70
19110;DHT22;9687;50.836;12.060;2023-06-01T09:10:42;21.80;65.00
19110;DHT22;9687;50.836;12.060;2023-06-01T09:13:10;22.00;65.20
19110;DHT22;9687;50.836;12.060;2023-06-01T09:15:49;22.20;65.30
19110;DHT22;9687;50.836;12.060;2023-06-01T09:18:16;22.40;64.50
19110;DHT22;9687;50.836;12.060;2023-06-01T09:20:43;22.60;64.40
19110;DHT22;9687;50.836;12.060;2023-06-01T09:23:13;22.80;64.10
19110;DHT22;9687;50.836;12.060;2023-06-01T09:26:03;23.10;63.40
19110;DHT22;9687;50.836;12.060;2023-06-01T09:31:17;23.80;61.10
19110;DHT22;9687;50.836;12.060;2023-06-01T09:34:01;24.20;59.60
19110;DHT22;9687;50.836;12.060;2023-06-01T09:36:32;24.70;58.70
19110;DHT22;9687;50.836;12.060;2023-06-01T09:39:08;25.10;58.30
19110;DHT22;9687;50.836;12.060;2023-06-01T09:41:48;25.60;57.80
19110;DHT22;9687;50.836;12.060;2023-06-01T09:44:22;26.20;56.80
19110;DHT22;9687;50.836;12.060;2023-06-01T09:46:50;26.70;56.00
19110;DHT22;9687;50.836;12.060;2023-06-01T09:49:22;27.20;53.90
19110;DHT22;9687;50.836;12.060;2023-06-01T09:51:51;27.70;53.50
19110;DHT22;9687;50.836;12.060;2023-06-01T09:54:26;28.20;52.10
19110;DHT22;9687;50.836;12.060;2023-06-01T09:57:09;28.60;51.80
19110;DHT22;9687;50.836;12.060;2023-06-01T09:59:40;29.10;51.00
19110;DHT22;9687;50.836;12.060;2023-06-01T10:02:13;29.50;50.40
19110;DHT22;9687;50.836;12.060;2023-06-01T10:04:42;29.90;49.40
19110;DHT22;9687;50.836;12.060;2023-06-01T10:07:14;30.10;47.70
19110;DHT22;9687;50.836;12.060;2023-06-01T10:09:45;30.10;47.20
19110;DHT22;9687;50.836;12.060;2023-06-01T10:12:16;30.10;47.00
19110;DHT22;9687;50.836;12.060;2023-06-01T10:14:46;30.30;47.10
19110;DHT22;9687;50.836;12.060;2023-06-01T10:17:14;30.50;46.30
19110;DHT22;9687;50.836;12.060;2023-06-01T10:19:42;30.80;46.00
19110;DHT22;9687;50.836;12.060;2023-06-01T10:22:10;31.00;45.60
19110;DHT22;9687;50.836;12.060;2023-06-01T10:24:39;31.20;45.40
19110;DHT22;9687;50.836;12.060;2023-06-01T10:27:12;31.50;44.90
19110;DHT22;9687;50.836;12.060;2023-06-01T10:29:42;31.70;44.40
19110;DHT22;9687;50.836;12.060;2023-06-01T10:34:57;32.00;43.40
19110;DHT22;9687;50.836;12.060;2023-06-01T10:37:25;32.00;43.60
19110;DHT22;9687;50.836;12.060;2023-06-01T10:39:52;32.10;43.80
19110;DHT22;9687;50.836;12.060;2023-06-01T10:47:59;32.20;42.90
19110;DHT22;9687;50.836;12.060;2023-06-01T10:50:27;32.20;42.90
19110;DHT22;9687;50.836;12.060;2023-06-01T10:52:56;32.30;43.00
19110;DHT22;9687;50.836;12.060;2023-06-01T10:55:26;32.30;42.40
19110;DHT22;9687;50.836;12.060;2023-06-01T11:00:40;31.70;42.70
19110;DHT22;9687;50.836;12.060;2023-06-01T11:03:12;31.30;43.00
19110;DHT22;9687;50.836;12.060;2023-06-01T11:05:42;31.20;43.60
19110;DHT22;9687;50.836;12.060;2023-06-01T11:11:13;31.10;43.40
19110;DHT22;9687;50.836;12.060;2023-06-01T11:13:43;31.20;43.40
19110;DHT22;9687;50.836;12.060;2023-06-01T11:16:27;31.20;42.70
19110;DHT22;9687;50.836;12.060;2023-06-01T11:18:57;31.20;42.40
19110;DHT22;9687;50.836;12.060;2023-06-01T11:21:25;31.20;42.80
19110;DHT22;9687;50.836;12.060;2023-06-01T11:23:53;31.20;42.60
19110;DHT22;9687;50.836;12.060;2023-06-01T11:26:22;31.20;42.50
19110;DHT22;9687;50.836;12.060;2023-06-01T11:28:51;31.20;42.40
19110;DHT22;9687;50.836;12.060;2023-06-01T11:31:20;31.20;42.40
19110;DHT22;9687;50.836;12.060;2023-06-01T11:33:51;31.30;42.20
19110;DHT22;9687;50.836;12.060;2023-06-01T11:36:25;31.30;42.10
19110;DHT22;9687;50.836;12.060;2023-06-01T11:38:55;31.40;42.10
19110;DHT22;9687;50.836;12.060;2023-06-01T11:41:24;31.30;41.60
19110;DHT22;9687;50.836;12.060;2023-06-01T11:43:54;31.10;41.20
19110;DHT22;9687;50.836;12.060;2023-06-01T11:46:23;30.70;41.10
19110;DHT22;9687;50.836;12.060;2023-06-01T11:49:00;30.30;41.80
19110;DHT22;9687;50.836;12.060;2023-06-01T11:51:30;29.90;42.30
19110;DHT22;9687;50.836;12.060;2023-06-01T11:54:02;29.60;43.00
19110;DHT22;9687;50.836;12.060;2023-06-01T11:56:34;29.20;43.00
19110;DHT22;9687;50.836;12.060;2023-06-01T11:59:03;28.90;43.20
19110;DHT22;9687;50.836;12.060;2023-06-01T12:01:35;28.70;44.20
19110;DHT22;9687;50.836;12.060;2023-06-01T12:04:05;28.40;44.10
19110;DHT22;9687;50.836;12.060;2023-06-01T12:06:40;28.30;44.90
19110;DHT22;9687;50.836;12.060;2023-06-01T12:09:10;28.20;45.40
19110;DHT22;9687;50.836;12.060;2023-06-01T12:11:41;28.20;45.80
19110;DHT22;9687;50.836;12.060;2023-06-01T12:14:20;28.10;46.00
19110;DHT22;9687;50.836;12.060;2023-06-01T12:17:05;28.00;46.60
19110;DHT22;9687;50.836;12.060;2023-06-01T12:19:50;27.90;47.10
19110;DHT22;9687;50.836;12.060;2023-06-01T12:22:29;27.70;47.40
19110;DHT22;9687;50.836;12.060;2023-06-01T12:25:05;27.50;47.80
19110;DHT22;9687;50.836;12.060;2023-06-01T12:27:35;27.40;48.10
19110;DHT22;9687;50.836;12.060;2023-06-01T12:30:20;27.30;48.30
19110;DHT22;9687;50.836;12.060;2023-06-01T12:33:09;27.10;48.50
19110;DHT22;9687;50.836;12.060;2023-06-01T12:35:56;27.00;48.70
19110;DHT22;9687;50.836;12.060;2023-06-01T12:38:25;27.00;48.80
19110;DHT22;9687;50.836;12.060;2023-06-01T12:41:06;27.00;48.90
19110;DHT22;9687;50.836;12.060;2023-06-01T12:43:35;26.90;48.90
19110;DHT22;9687;50.836;12.060;2023-06-01T12:46:03;26.90;49.10
19110;DHT22;9687;50.836;12.060;2023-06-01T12:48:32;26.80;49.10
19110;DHT22;9687;50.836;12.060;2023-06-01T12:50:59;26.80;49.20
19110;DHT22;9687;50.836;12.060;2023-06-01T12:53:29;26.80;49.10
19110;DHT22;9687;50.836;12.060;2023-06-01T12:55:57;26.70;48.80
19110;DHT22;9687;50.836;12.060;2023-06-01T12:58:26;26.60;48.70
19110;DHT22;9687;50.836;12.060;2023-06-01T13:00:54;26.60;48.70
19110;DHT22;9687;50.836;12.060;2023-06-01T13:03:22;26.50;49.00
19110;DHT22;9687;50.836;12.060;2023-06-01T13:05:49;26.60;49.00
19110;DHT22;9687;50.836;12.060;2023-06-01T13:08:17;26.50;49.40
19110;DHT22;9687;50.836;12.060;2023-06-01T13:10:47;26.50;49.00
19110;DHT22;9687;50.836;12.060;2023-06-01T13:13:14;26.50;49.10
19110;DHT22;9687;50.836;12.060;2023-06-01T13:15:42;26.40;48.70
19110;DHT22;9687;50.836;12.060;2023-06-01T13:18:11;26.40;48.60
19110;DHT22;9687;50.836;12.060;2023-06-01T13:20:38;26.40;48.90
19110;DHT22;9687;50.836;12.060;2023-06-01T13:23:06;26.30;48.60
19110;DHT22;9687;50.836;12.060;2023-06-01T13:25:35;26.30;48.50
19110;DHT22;9687;50.836;12.060;2023-06-01T13:28:07;26.30;48.30
19110;DHT22;9687;50.836;12.060;2023-06-01T13:30:35;26.30;48.50
19110;DHT22;9687;50.836;12.060;2023-06-01T13:33:03;26.30;49.00
19110;DHT22;9687;50.836;12.060;2023-06-01T13:35:31;26.30;48.60
19110;DHT22;9687;50.836;12.060;2023-06-01T13:37:59;26.30;48.70
19110;DHT22;9687;50.836;12.060;2023-06-01T13:40:27;26.30;48.70
19110;DHT22;9687;50.836;12.060;2023-06-01T13:42:55;26.30;48.90
19110;DHT22;9687;50.836;12.060;2023-06-01T13:45:24;26.30;49.20
19110;DHT22;9687;50.836;12.060;2023-06-01T13:47:53;26.30;49.00
19110;DHT22;9687;50.836;12.060;2023-06-01T13:50:21;26.30;48.90
19110;DHT22;9687;50.836;12.060;2023-06-01T13:52:49;26.30;48.60
19110;DHT22;9687;50.836;12.060;2023-06-01T13:55:18;26.30;48.80
19110;DHT22;9687;50.836;12.060;2023-06-01T13:57:45;26.30;49.00
19110;DHT22;9687;50.836;12.060;2023-06-01T14:00:14;26.30;49.20
19110;DHT22;9687;50.836;12.060;2023-06-01T14:02:43;26.30;49.20
19110;DHT22;9687;50.836;12.060;2023-06-01T14:05:12;26.40;49.40
19110;DHT22;9687;50.836;12.060;2023-06-01T14:07:42;26.40;49.80
19110;DHT22;9687;50.836;12.060;2023-06-01T14:10:12;26.40;50.20
19110;DHT22;9687;50.836;12.060;2023-06-01T14:12:42;26.30;50.30
19110;DHT22;9687;50.836;12.060;2023-06-01T14:15:11;26.30;50.40
19110;DHT22;9687;50.836;12.060;2023-06-01T14:17:39;26.30;50.70
19110;DHT22;9687;50.836;12.060;2023-06-01T14:20:10;26.30;50.70
19110;DHT22;9687;50.836;12.060;2023-06-01T14:22:38;26.20;50.80
19110;DHT22;9687;50.836;12.060;2023-06-01T14:25:07;26.20;51.10
19110;DHT22;9687;50.836;12.060;2023-06-01T14:27:35;26.20;51.40
19110;DHT22;9687;50.836;12.060;2023-06-01T14:30:04;26.10;51.50
19110;DHT22;9687;50.836;12.060;2023-06-01T14:32:31;26.10;51.70
19110;DHT22;9687;50.836;12.060;2023-06-01T14:35:00;26.10;52.00
19110;DHT22;9687;50.836;12.060;2023-06-01T14:37:31;26.10;52.20
19110;DHT22;9687;50.836;12.060;2023-06-01T14:40:00;26.10;52.40
19110;DHT22;9687;50.836;12.060;2023-06-01T14:42:29;26.10;52.40
19110;DHT22;9687;50.836;12.060;2023-06-01T14:44:58;26.10;52.30
19110;DHT22;9687;50.836;12.060;2023-06-01T14:47:26;26.10;52.20
19110;DHT22;9687;50.836;12.060;2023-06-01T14:49:54;26.10;52.40
19110;DHT22;9687;50.836;12.060;2023-06-01T14:52:24;26.10;52.60
19110;DHT22;9687;50.836;12.060;2023-06-01T14:55:00;26.10;52.40
19110;DHT22;9687;50.836;12.060;2023-06-01T14:57:29;26.10;52.40
19110;DHT22;9687;50.836;12.060;2023-06-01T14:59:59;26.00;52.40
19110;DHT22;9687;50.836;12.060;2023-06-01T15:02:26;26.10;52.40
19110;DHT22;9687;50.836;12.060;2023-06-01T15:04:56;26.10;52.50
19110;DHT22;9687;50.836;12.060;2023-06-01T15:07:25;26.00;52.50
19110;DHT22;9687;50.836;12.060;2023-06-01T15:10:04;26.10;52.60
19110;DHT22;9687;50.836;12.060;2023-06-01T15:12:38;26.10;52.50
19110;DHT22;9687;50.836;12.060;2023-06-01T15:15:06;26.00;52.40
19110;DHT22;9687;50.836;12.060;2023-06-01T15:17:42;26.00;52.30
19110;DHT22;9687;50.836;12.060;2023-06-01T15:20:28;26.00;52.20
19110;DHT22;9687;50.836;12.060;2023-06-01T15:22:57;26.00;52.10
19110;DHT22;9687;50.836;12.060;2023-06-01T15:25:35;26.00;52.20
19110;DHT22;9687;50.836;12.060;2023-06-01T15:28:03;26.00;52.30
19110;DHT22;9687;50.836;12.060;2023-06-01T15:30:34;26.00;52.40
19110;DHT22;9687;50.836;12.060;2023-06-01T15:33:19;26.00;52.50
19110;DHT22;9687;50.836;12.060;2023-06-01T15:36:04;25.90;52.60
19110;DHT22;9687;50.836;12.060;2023-06-01T15:38:32;25.90;52.80
19110;DHT22;9687;50.836;12.060;2023-06-01T15:41:04;25.90;53.00
19110;DHT22;9687;50.836;12.060;2023-06-01T15:43:33;25.90;53.00
19110;DHT22;9687;50.836;12.060;2023-06-01T15:46:04;25.90;53.00
19110;DHT22;9687;50.836;12.060;2023-06-01T15:48:32;25.90;53.00
19110;DHT22;9687;50.836;12.060;2023-06-01T15:51:00;25.90;53.20
19110;DHT22;9687;50.836;12.060;2023-06-01T15:53:28;25.90;53.50
19110;DHT22;9687;50.836;12.060;2023-06-01T15:55:55;25.90;53.70
19110;DHT22;9687;50.836;12.060;2023-06-01T15:58:25;25.80;53.70
19110;DHT22;9687;50.836;12.060;2023-06-01T16:00:56;25.80;53.90
19110;DHT22;9687;50.836;12.060;2023-06-01T16:03:24;25.80;53.90
19110;DHT22;9687;50.836;12.060;2023-06-01T16:06:07;25.80;54.00
19110;DHT22;9687;50.836;12.060;2023-06-01T16:08:37;25.80;54.00
19110;DHT22;9687;50.836;12.060;2023-06-01T16:11:05;25.70;53.90